createdAt,value
2018-09-14T00:01:21.954Z,77.24
2018-09-14T00:03:50.143Z,77.12
2018-09-14T00:06:18.331Z,77.06
2018-09-14T00:08:46.502Z,76.89
2018-09-14T00:11:14.687Z,77.10
2018-09-14T00:13:42.866Z,77.01
2018-09-14T00:16:11.058Z,76.59
2018-09-14T00:18:39.240Z,76.37
2018-09-14T00:21:07.439Z,76.21
2018-09-14T00:23:35.628Z,76.08
2018-09-14T00:26:03.814Z,75.92
2018-09-14T00:28:32.021Z,75.72
2018-09-14T00:31:00.208Z,75.67
2018-09-14T00:33:28.394Z,75.86
2018-09-14T00:35:56.579Z,75.82
2018-09-14T00:38:24.762Z,76.18
2018-09-14T00:40:52.955Z,76.47
2018-09-14T00:43:21.130Z,76.54
2018-09-14T00:45:49.346Z,76.28
2018-09-14T00:48:17.572Z,76.24
2018-09-14T00:50:45.749Z,76.12
2018-09-14T00:53:13.930Z,76.06
2018-09-14T00:55:42.131Z,75.88
2018-09-14T00:58:10.340Z,75.74
2018-09-14T01:00:38.532Z,75.56
2018-09-14T01:03:06.494Z,75.68
2018-09-14T01:05:34.674Z,75.69
2018-09-14T01:08:02.867Z,75.59
2018-09-14T01:10:31.043Z,75.43
2018-09-14T01:12:59.226Z,75.50
2018-09-14T01:15:27.399Z,75.76
2018-09-14T01:17:55.602Z,75.92
2018-09-14T01:20:23.782Z,76.28
2018-09-14T01:22:51.966Z,76.08
2018-09-14T01:25:20.159Z,76.92
2018-09-14T01:27:48.339Z,77.22
2018-09-14T01:30:16.543Z,77.13
2018-09-14T01:32:44.743Z,77.29
2018-09-14T01:35:18.187Z,77.01
2018-09-14T01:37:46.376Z,76.73
2018-09-14T01:40:14.568Z,76.53
2018-09-14T01:42:42.746Z,76.54
2018-09-14T01:45:10.919Z,76.20
2018-09-14T01:47:39.339Z,76.37
2018-09-14T01:50:07.592Z,76.53
2018-09-14T01:52:35.821Z,76.47
2018-09-14T01:55:04.015Z,76.25
2018-09-14T01:57:32.211Z,76.19
2018-09-14T02:00:00.416Z,76.24
2018-09-14T02:02:28.601Z,76.29
2018-09-14T02:04:56.789Z,76.16
2018-09-14T02:07:24.994Z,76.18
2018-09-14T02:09:53.187Z,76.33
2018-09-14T02:12:21.377Z,76.04
2018-09-14T02:14:49.547Z,75.87
2018-09-14T02:17:17.744Z,75.10
2018-09-14T02:19:45.932Z,74.71
2018-09-14T02:22:14.124Z,74.19
2018-09-14T02:24:42.321Z,74.19
2018-09-14T02:27:10.719Z,73.96
2018-09-14T02:29:39.203Z,74.12
2018-09-14T02:32:07.384Z,74.31
2018-09-14T02:34:35.652Z,74.36
2018-09-14T02:37:04.231Z,74.23
2018-09-14T02:39:32.620Z,74.20
2018-09-14T02:42:00.799Z,74.49
2018-09-14T02:44:28.986Z,74.26
2018-09-14T02:46:57.199Z,74.35
2018-09-14T02:49:25.382Z,74.27
2018-09-14T02:51:53.794Z,74.36
2018-09-14T02:54:22.016Z,74.34
2018-09-14T02:56:50.554Z,74.27
2018-09-14T02:59:18.728Z,74.52
2018-09-14T03:01:46.911Z,74.62
2018-09-14T03:04:15.120Z,74.71
2018-09-14T03:06:43.311Z,74.83
2018-09-14T03:09:11.488Z,75.07
2018-09-14T03:11:39.696Z,75.18
2018-09-14T03:14:08.071Z,75.31
2018-09-14T03:16:36.564Z,75.36
2018-09-14T03:19:04.944Z,75.45
2018-09-14T03:21:33.183Z,75.50
2018-09-14T03:24:01.364Z,75.57
2018-09-14T03:26:29.563Z,75.71
2018-09-14T03:28:57.731Z,76.43
2018-09-14T03:31:25.911Z,76.14
2018-09-14T03:33:54.109Z,76.17
2018-09-14T03:36:22.321Z,75.99
2018-09-14T03:38:50.514Z,76.20
2018-09-14T03:41:18.699Z,75.90
2018-09-14T03:43:47.542Z,76.39
2018-09-14T03:46:15.726Z,76.81
2018-09-14T03:48:43.927Z,76.56
2018-09-14T03:51:12.115Z,76.37
2018-09-14T03:53:40.302Z,76.19
2018-09-14T03:56:08.495Z,76.23
2018-09-14T03:58:36.687Z,76.41
2018-09-14T04:01:04.875Z,76.25
2018-09-14T04:03:33.080Z,76.49
2018-09-14T04:06:01.247Z,76.94
2018-09-14T04:08:29.442Z,77.29
2018-09-14T04:10:57.719Z,76.96
2018-09-14T04:13:25.926Z,76.75
2018-09-14T04:15:54.123Z,76.69
2018-09-14T04:18:22.443Z,77.15
2018-09-14T04:20:50.635Z,76.92
2018-09-14T04:23:18.876Z,76.75
2018-09-14T04:25:47.049Z,77.01
2018-09-14T04:28:15.227Z,76.81
2018-09-14T04:30:43.427Z,76.38
2018-09-14T04:33:11.643Z,76.31
2018-09-14T04:35:39.824Z,76.67
2018-09-14T04:38:08.293Z,76.39
2018-09-14T04:40:36.402Z,76.34
2018-09-14T04:43:04.565Z,76.89
2018-09-14T04:45:32.759Z,77.29
2018-09-14T04:48:00.963Z,77.29
2018-09-14T04:50:29.163Z,76.86
2018-09-14T04:52:57.353Z,76.75
2018-09-14T04:55:25.543Z,76.85
2018-09-14T04:57:53.737Z,76.94
2018-09-14T05:00:21.921Z,77.13
2018-09-14T05:02:50.745Z,77.13
2018-09-14T05:05:18.920Z,76.99
2018-09-14T05:07:47.129Z,77.19
2018-09-14T05:10:15.296Z,76.89
2018-09-14T05:12:43.503Z,76.87
2018-09-14T05:15:11.680Z,76.80
2018-09-14T05:17:39.911Z,76.89
2018-09-14T05:20:08.091Z,76.42
2018-09-14T05:22:36.352Z,76.45
2018-09-14T05:25:04.569Z,76.54
2018-09-14T05:27:33.274Z,76.56
2018-09-14T05:30:01.495Z,76.65
2018-09-14T05:32:29.683Z,76.39
2018-09-14T05:34:57.915Z,76.81
2018-09-14T05:37:26.156Z,76.98
2018-09-14T05:39:54.430Z,76.58
2018-09-14T05:42:23.020Z,76.92
2018-09-14T05:44:51.200Z,76.89
2018-09-14T05:47:19.395Z,76.49
2018-09-14T05:49:47.611Z,76.73
2018-09-14T05:52:15.828Z,76.82
2018-09-14T05:54:44.015Z,76.70
2018-09-14T05:57:12.220Z,76.57
2018-09-14T05:59:40.397Z,76.82
2018-09-14T06:02:08.648Z,76.78
2018-09-14T06:04:37.396Z,76.61
2018-09-14T06:07:05.667Z,76.97
2018-09-14T06:09:33.908Z,76.74
2018-09-14T06:12:02.223Z,76.83
2018-09-14T06:14:30.415Z,76.76
2018-09-14T06:16:58.651Z,76.75
2018-09-14T06:19:26.819Z,76.90
2018-09-14T06:21:54.998Z,76.89
2018-09-14T06:24:23.180Z,76.75
2018-09-14T06:26:51.414Z,77.08
2018-09-14T06:29:20.452Z,76.85
2018-09-14T06:31:48.647Z,77.05
2018-09-14T06:34:16.852Z,76.96
2018-09-14T06:36:45.049Z,77.18
2018-09-14T06:39:13.386Z,77.33
2018-09-14T06:41:41.555Z,77.12
2018-09-14T06:44:10.080Z,76.80
2018-09-14T06:46:38.507Z,76.47
2018-09-14T06:49:06.683Z,75.85
2018-09-14T06:51:36.296Z,75.51
2018-09-14T06:54:04.549Z,74.91
2018-09-14T06:56:32.732Z,74.86
2018-09-14T06:59:00.925Z,75.03
2018-09-14T07:01:29.139Z,75.05
2018-09-14T07:03:57.335Z,75.01
2018-09-14T07:06:25.587Z,74.82
2018-09-14T07:08:53.712Z,75.30
2018-09-14T07:11:21.896Z,75.15
2018-09-14T07:13:50.059Z,74.69
2018-09-14T07:16:18.262Z,74.81
2018-09-14T07:18:46.884Z,74.98
2018-09-14T07:21:15.068Z,75.00
2018-09-14T07:23:43.267Z,75.03
2018-09-14T07:26:11.475Z,74.54
2018-09-14T07:28:39.689Z,74.55
2018-09-14T07:31:07.818Z,74.23
2018-09-14T07:33:36.005Z,74.27
2018-09-14T07:36:04.187Z,73.96
2018-09-14T07:38:32.377Z,74.09
2018-09-14T07:41:00.555Z,73.98
2018-09-14T07:43:28.729Z,73.82
2018-09-14T07:45:56.906Z,73.80
2018-09-14T07:48:25.193Z,74.40
2018-09-14T07:50:53.288Z,74.08
2018-09-14T07:53:21.475Z,74.08
2018-09-14T07:55:49.638Z,73.41
2018-09-14T07:58:17.820Z,72.94
2018-09-14T08:00:46.003Z,72.79
2018-09-14T08:03:14.216Z,72.75
2018-09-14T08:05:42.464Z,73.22
2018-09-14T08:08:10.648Z,72.96
2018-09-14T08:10:38.943Z,72.59
2018-09-14T08:13:07.316Z,71.56
2018-09-14T08:15:35.480Z,71.85
2018-09-14T08:18:03.683Z,71.82
2018-09-14T08:20:32.335Z,70.94
2018-09-14T08:23:00.715Z,70.75
2018-09-14T08:25:28.903Z,70.80
2018-09-14T08:27:57.131Z,69.56
2018-09-14T08:30:25.510Z,69.79
2018-09-14T08:32:53.703Z,69.35
2018-09-14T08:35:21.932Z,69.35
2018-09-14T08:37:50.286Z,68.90
2018-09-14T08:40:18.517Z,67.60
2018-09-14T08:42:46.796Z,67.17
2018-09-14T08:45:15.025Z,67.50
2018-09-14T08:47:43.252Z,67.57
2018-09-14T08:50:11.470Z,66.90
2018-09-14T08:52:40.227Z,66.07
2018-09-14T08:55:08.441Z,66.06
2018-09-14T08:57:36.681Z,65.48
2018-09-14T09:00:05.331Z,64.63
2018-09-14T09:02:33.522Z,62.48
2018-09-14T09:05:02.101Z,62.57
2018-09-14T09:07:30.278Z,62.49
2018-09-14T09:09:58.509Z,62.03
2018-09-14T09:12:26.747Z,62.18
2018-09-14T09:14:54.991Z,62.09
2018-09-14T09:17:23.228Z,61.78
2018-09-14T09:19:51.508Z,61.18
2018-09-14T09:22:19.684Z,60.06
2018-09-14T09:24:48.487Z,59.96
2018-09-14T09:27:16.689Z,58.64
2018-09-14T09:29:44.899Z,59.04
2018-09-14T09:32:13.083Z,57.55
2018-09-14T09:34:41.265Z,56.45
2018-09-14T09:37:09.504Z,57.06
2018-09-14T09:39:37.741Z,55.25
2018-09-14T09:42:05.914Z,55.26
2018-09-14T09:44:34.103Z,52.94
2018-09-14T09:47:02.367Z,50.98
2018-09-14T09:49:30.602Z,50.15
2018-09-14T09:51:58.823Z,50.08
2018-09-14T09:54:27.927Z,50.91
2018-09-14T09:56:56.240Z,48.55
2018-09-14T09:59:24.447Z,48.82
2018-09-14T10:01:57.862Z,48.75
2018-09-14T10:04:31.178Z,48.63
2018-09-14T10:06:59.964Z,46.23
2018-09-14T10:09:28.244Z,46.53
2018-09-14T10:11:56.428Z,46.42
2018-09-14T10:14:24.802Z,47.19
2018-09-14T10:16:53.035Z,45.43
2018-09-14T10:19:21.258Z,45.45
2018-09-14T10:21:49.499Z,44.17
2018-09-14T10:24:17.635Z,44.04
2018-09-14T10:26:45.874Z,43.92
2018-09-14T10:29:14.016Z,42.70
2018-09-14T10:31:42.216Z,42.28
2018-09-14T10:34:10.415Z,41.86
2018-09-14T10:36:38.623Z,43.67
2018-09-14T10:39:08.531Z,39.29
2018-09-14T10:41:36.676Z,40.66
2018-09-14T10:44:04.874Z,39.69
2018-09-14T10:46:33.070Z,40.76
2018-09-14T10:49:01.281Z,40.32
2018-09-14T10:51:29.475Z,39.13
2018-09-14T10:53:57.744Z,37.88
2018-09-14T10:56:26.077Z,37.12
2018-09-14T10:58:55.903Z,37.68
2018-09-14T11:01:25.207Z,37.68
2018-09-14T11:03:54.119Z,36.92
2018-09-14T11:06:22.692Z,37.80
2018-09-14T11:08:51.589Z,39.09
2018-09-14T11:11:20.243Z,39.70
2018-09-14T11:13:49.610Z,41.53
2018-09-14T11:16:17.978Z,41.50
2018-09-14T11:18:46.644Z,41.49
2018-09-14T11:21:14.849Z,41.67
2018-09-14T11:23:44.003Z,41.78
2018-09-14T11:26:12.949Z,43.58
2018-09-14T11:28:41.237Z,43.06
2018-09-14T11:31:10.591Z,41.74
2018-09-14T11:33:38.892Z,42.42
2018-09-14T11:36:07.786Z,40.44
2018-09-14T11:38:36.201Z,40.61
2018-09-14T11:41:04.368Z,40.91
2018-09-14T11:43:33.373Z,40.05
2018-09-14T11:46:02.244Z,38.97
2018-09-14T11:48:31.467Z,40.08
2018-09-14T11:50:59.846Z,39.97
2018-09-14T11:53:28.876Z,40.40
2018-09-14T11:55:57.498Z,39.85
2018-09-14T11:58:27.295Z,39.36
2018-09-14T12:00:55.688Z,39.33
2018-09-14T12:03:24.437Z,37.54
2018-09-14T12:05:52.829Z,38.91
2018-09-14T12:08:21.050Z,38.83
2018-09-14T12:10:49.321Z,39.27
2018-09-14T12:13:17.558Z,39.48
2018-09-14T12:15:45.812Z,39.61
2018-09-14T12:18:14.168Z,39.34
2018-09-14T12:20:42.554Z,39.09
2018-09-14T12:23:10.770Z,38.99
2018-09-14T12:25:39.330Z,39.63
2018-09-14T12:28:08.400Z,38.92
2018-09-14T12:30:37.827Z,38.69
2018-09-14T12:33:06.227Z,39.00
2018-09-14T12:35:34.539Z,39.02
2018-09-14T12:38:04.532Z,39.29
2018-09-14T12:40:32.717Z,39.79
2018-09-14T12:43:00.946Z,40.76
2018-09-14T12:45:30.375Z,39.13
2018-09-14T12:47:58.586Z,40.31
2018-09-14T12:50:27.559Z,39.75
2018-09-14T12:52:55.819Z,38.47
2018-09-14T12:55:24.248Z,37.62
2018-09-14T12:57:52.624Z,37.39
2018-09-14T13:00:21.882Z,36.23
2018-09-14T13:02:54.887Z,37.00
2018-09-14T13:05:23.347Z,36.68
2018-09-14T13:07:53.540Z,37.15
2018-09-14T13:10:21.915Z,38.22
2018-09-14T13:12:52.659Z,37.98
2018-09-14T13:15:20.955Z,37.35
2018-09-14T13:17:49.735Z,38.16
2018-09-14T13:20:17.963Z,38.45
2018-09-14T13:22:46.357Z,36.82
2018-09-14T13:25:14.655Z,36.02
2018-09-14T13:27:43.006Z,37.12
2018-09-14T13:30:12.429Z,35.23
2018-09-14T13:32:43.624Z,35.10
2018-09-14T13:35:12.755Z,36.59
2018-09-14T13:37:41.592Z,35.88
2018-09-14T13:40:09.941Z,36.33
2018-09-14T13:42:38.224Z,36.31
2018-09-14T13:45:06.600Z,35.93
2018-09-14T13:47:36.461Z,35.45
2018-09-14T13:50:04.812Z,35.52
2018-09-14T13:52:33.852Z,34.96
2018-09-14T13:55:02.225Z,35.82
2018-09-14T13:57:30.613Z,36.24
2018-09-14T13:59:59.034Z,36.53
2018-09-14T14:02:28.080Z,37.64
2018-09-14T14:04:56.447Z,36.48
2018-09-14T14:07:25.305Z,37.39
2018-09-14T14:09:54.641Z,37.73
2018-09-14T14:12:23.510Z,37.77
2018-09-14T14:14:51.780Z,38.06
2018-09-14T14:17:23.053Z,37.57
2018-09-14T14:19:52.581Z,38.13
2018-09-14T14:22:20.991Z,37.03
2018-09-14T14:24:49.723Z,37.58
2018-09-14T14:27:17.939Z,37.37
2018-09-14T14:29:46.299Z,37.02
2018-09-14T14:32:14.642Z,37.60
2018-09-14T14:34:43.623Z,38.42
2018-09-14T14:37:13.352Z,37.74
2018-09-14T14:39:41.568Z,37.59
2018-09-14T14:42:10.350Z,38.33
2018-09-14T14:44:38.755Z,39.24
2018-09-14T14:47:07.073Z,38.64
2018-09-14T14:49:35.353Z,39.19
2018-09-14T14:52:03.647Z,37.42
2018-09-14T14:54:31.828Z,37.74
2018-09-14T14:56:59.998Z,37.10
2018-09-14T14:59:28.236Z,38.47
2018-09-14T15:01:56.412Z,37.25
2018-09-14T15:04:24.636Z,36.40
2018-09-14T15:06:52.809Z,36.79
2018-09-14T15:09:20.999Z,36.58
2018-09-14T15:11:49.183Z,36.78
2018-09-14T15:14:17.381Z,37.58
2018-09-14T15:16:45.579Z,37.05
2018-09-14T15:19:13.762Z,37.50
2018-09-14T15:21:41.966Z,37.72
2018-09-14T15:24:10.181Z,37.96
2018-09-14T15:26:38.364Z,37.97
2018-09-14T15:29:06.566Z,37.00
2018-09-14T15:31:34.752Z,37.28
2018-09-14T15:34:02.943Z,36.94
2018-09-14T15:36:31.278Z,37.11
2018-09-14T15:38:59.451Z,37.96
2018-09-14T15:41:27.628Z,36.73
2018-09-14T15:43:55.871Z,36.47
2018-09-14T15:46:24.050Z,36.12
2018-09-14T15:48:52.227Z,36.18
2018-09-14T15:51:20.419Z,36.33
2018-09-14T15:53:48.606Z,36.37
2018-09-14T15:56:16.808Z,35.70
2018-09-14T15:58:44.978Z,36.36
2018-09-14T16:01:13.188Z,36.09
2018-09-14T16:03:41.444Z,35.83
2018-09-14T16:06:09.696Z,36.20
2018-09-14T16:08:37.867Z,36.48
2018-09-14T16:11:06.353Z,36.16
2018-09-14T16:13:34.620Z,36.22
2018-09-14T16:16:02.704Z,36.97
2018-09-14T16:18:30.879Z,36.74
2018-09-14T16:20:59.323Z,36.85
2018-09-14T16:23:27.495Z,37.22
2018-09-14T16:25:55.673Z,37.07
2018-09-14T16:28:24.935Z,37.05
2018-09-14T16:30:53.163Z,37.76
2018-09-14T16:33:21.338Z,36.83
2018-09-14T16:35:50.264Z,36.76
2018-09-14T16:38:19.200Z,36.86
2018-09-14T16:40:47.568Z,36.82
2018-09-14T16:43:16.133Z,37.20
2018-09-14T16:45:45.327Z,37.17
2018-09-14T16:48:13.507Z,37.92
2018-09-14T16:50:41.703Z,37.84
2018-09-14T16:53:09.876Z,37.67
2018-09-14T16:55:38.056Z,38.82
2018-09-14T16:58:06.297Z,38.70
2018-09-14T17:00:34.579Z,38.57
2018-09-14T17:03:02.752Z,38.43
2018-09-14T17:05:31.002Z,38.11
2018-09-14T17:07:59.296Z,38.67
2018-09-14T17:10:27.510Z,38.84
2018-09-14T17:12:55.728Z,39.19
2018-09-14T17:15:23.894Z,39.24
2018-09-14T17:17:52.083Z,39.14
2018-09-14T17:20:20.254Z,38.99
2018-09-14T17:22:48.447Z,39.65
2018-09-14T17:25:16.619Z,39.02
2018-09-14T17:27:44.799Z,39.93
2018-09-14T17:30:12.968Z,40.25
2018-09-14T17:32:41.157Z,40.46
2018-09-14T17:35:09.331Z,40.71
2018-09-14T17:37:37.507Z,41.35
2018-09-14T17:40:05.853Z,42.14
2018-09-14T17:42:35.087Z,40.62
2018-09-14T17:45:03.278Z,41.35
2018-09-14T17:47:31.455Z,42.89
2018-09-14T17:49:59.651Z,43.56
2018-09-14T17:52:27.816Z,44.49
2018-09-14T17:54:55.995Z,44.11
2018-09-14T17:57:24.184Z,45.14
2018-09-14T17:59:52.339Z,46.13
2018-09-14T18:02:20.512Z,46.26
2018-09-14T18:04:48.706Z,46.09
2018-09-14T18:07:16.876Z,46.31
2018-09-14T18:09:45.188Z,46.43
2018-09-14T18:12:13.376Z,47.23
2018-09-14T18:14:41.916Z,47.78
2018-09-14T18:17:10.522Z,47.96
2018-09-14T18:19:39.883Z,47.84
2018-09-14T18:22:08.345Z,48.69
2018-09-14T18:24:36.710Z,48.89
2018-09-14T18:27:04.996Z,48.84
2018-09-14T18:29:33.355Z,49.13
2018-09-14T18:32:02.603Z,49.08
2018-09-14T18:34:31.300Z,49.01
2018-09-14T18:37:00.320Z,48.89
2018-09-14T18:39:28.963Z,49.23
2018-09-14T18:41:57.252Z,49.71
2018-09-14T18:44:25.425Z,49.97
2018-09-14T18:46:53.803Z,50.27
2018-09-14T18:49:21.983Z,50.33
2018-09-14T18:51:50.314Z,50.40
2018-09-14T18:54:18.776Z,50.56
2018-09-14T18:56:47.615Z,50.77
2018-09-14T18:59:19.472Z,50.84
2018-09-14T19:01:48.735Z,51.10
2018-09-14T19:04:16.926Z,51.42
2018-09-14T19:06:45.090Z,51.91
2018-09-14T19:09:13.351Z,51.59
2018-09-14T19:11:41.642Z,52.46
2018-09-14T19:14:09.855Z,52.29
2018-09-14T19:16:38.175Z,52.12
2018-09-14T19:19:06.398Z,52.18
2018-09-14T19:21:34.580Z,53.05
2018-09-14T19:24:02.751Z,52.86
2018-09-14T19:26:31.081Z,53.20
2018-09-14T19:28:59.265Z,53.16
2018-09-14T19:31:27.471Z,53.35
2018-09-14T19:33:55.654Z,53.37
2018-09-14T19:36:23.913Z,53.40
2018-09-14T19:38:52.368Z,53.40
2018-09-14T19:41:21.639Z,53.84
2018-09-14T19:43:49.999Z,53.49
2018-09-14T19:46:20.954Z,53.01
2018-09-14T19:48:50.330Z,53.46
2018-09-14T19:51:19.712Z,53.41
2018-09-14T19:53:48.474Z,52.70
2018-09-14T19:56:17.425Z,52.10
2018-09-14T19:58:45.843Z,52.50
2018-09-14T20:01:14.744Z,52.87
2018-09-14T20:03:42.996Z,52.70
2018-09-14T20:06:11.859Z,53.40
2018-09-14T20:08:40.731Z,53.12
2018-09-14T20:11:08.936Z,53.77
2018-09-14T20:13:38.138Z,54.57
2018-09-14T20:16:06.392Z,54.78
2018-09-14T20:18:34.713Z,54.90
2018-09-14T20:21:02.856Z,54.48
2018-09-14T20:23:31.135Z,54.62
2018-09-14T20:25:59.528Z,54.90
2018-09-14T20:28:27.860Z,55.16
2018-09-14T20:30:56.084Z,55.15
2018-09-14T20:33:24.267Z,54.73
2018-09-14T20:35:52.463Z,55.25
2018-09-14T20:38:20.638Z,54.82
2018-09-14T20:40:48.828Z,54.21
2018-09-14T20:43:17.037Z,54.76
2018-09-14T20:45:45.227Z,54.93
2018-09-14T20:48:13.407Z,54.99
2018-09-14T20:50:41.610Z,54.83
2018-09-14T20:53:09.786Z,55.04
2018-09-14T20:55:38.000Z,55.29
2018-09-14T20:58:06.316Z,55.38
2018-09-14T21:00:34.496Z,55.29
2018-09-14T21:03:02.915Z,54.64
2018-09-14T21:05:31.095Z,54.97
2018-09-14T21:07:59.279Z,55.37
2018-09-14T21:10:27.515Z,55.43
2018-09-14T21:12:55.699Z,55.63
2018-09-14T21:15:23.890Z,55.16
2018-09-14T21:17:52.091Z,55.22
2018-09-14T21:20:20.280Z,54.68
2018-09-14T21:22:48.558Z,54.95
2018-09-14T21:25:16.660Z,54.99
2018-09-14T21:27:44.843Z,54.78
2018-09-14T21:30:13.036Z,55.19
2018-09-14T21:32:41.219Z,54.61
2018-09-14T21:35:09.456Z,54.68
2018-09-14T21:37:37.626Z,55.07
2018-09-14T21:40:06.067Z,55.31
2018-09-14T21:42:34.280Z,55.40
2018-09-14T21:45:02.488Z,55.87
2018-09-14T21:47:30.672Z,55.82
2018-09-14T21:49:58.880Z,55.91
2018-09-14T21:52:27.083Z,56.25
2018-09-14T21:54:55.307Z,56.03
2018-09-14T21:57:23.611Z,56.07
2018-09-14T21:59:51.796Z,56.35
2018-09-14T22:02:19.988Z,56.49
2018-09-14T22:04:48.771Z,56.22
2018-09-14T22:07:16.958Z,56.73
2018-09-14T22:09:45.121Z,56.49
2018-09-14T22:12:13.344Z,56.40
2018-09-14T22:14:41.535Z,56.34
2018-09-14T22:17:09.732Z,56.41
2018-09-14T22:19:37.916Z,56.33
2018-09-14T22:22:06.151Z,56.35
2018-09-14T22:24:34.300Z,56.60
2018-09-14T22:27:02.496Z,57.39
2018-09-14T22:29:30.691Z,57.39
2018-09-14T22:31:58.904Z,57.30
2018-09-14T22:34:27.106Z,56.79
2018-09-14T22:36:55.295Z,56.91
2018-09-14T22:39:23.495Z,56.71
2018-09-14T22:41:51.696Z,55.35
2018-09-14T22:44:19.873Z,54.49
2018-09-14T22:46:48.057Z,54.27
2018-09-14T22:49:16.252Z,54.51
2018-09-14T22:51:44.448Z,53.73
2018-09-14T22:54:12.648Z,53.81
2018-09-14T22:56:40.933Z,54.52
2018-09-14T22:59:09.140Z,54.26
2018-09-14T23:01:37.384Z,55.05
2018-09-14T23:04:05.560Z,55.39
2018-09-14T23:06:33.736Z,55.46
2018-09-14T23:09:01.932Z,55.89
2018-09-14T23:11:30.107Z,56.52
2018-09-14T23:13:58.297Z,56.83
2018-09-14T23:16:26.478Z,56.00
2018-09-14T23:18:54.662Z,55.19
2018-09-14T23:21:22.845Z,54.59
2018-09-14T23:23:51.022Z,55.53
2018-09-14T23:26:21.594Z,56.14
2018-09-14T23:28:49.805Z,56.62
2018-09-14T23:31:17.973Z,57.21
2018-09-14T23:33:46.174Z,57.81
2018-09-14T23:36:14.362Z,58.34
2018-09-14T23:38:42.534Z,58.55
2018-09-14T23:41:10.722Z,58.83
2018-09-14T23:43:38.918Z,58.69
2018-09-14T23:46:07.106Z,58.75
2018-09-14T23:48:35.308Z,59.28
2018-09-14T23:51:03.506Z,59.48
2018-09-14T23:53:31.701Z,59.56
2018-09-14T23:55:59.879Z,59.78
2018-09-14T23:58:28.059Z,60.09
